sensor_id;sensor_type;location;lat;lon;timestamp;P1;durP1;ratioP1;P2;durP2;ratioP2
22904;SDS011;11619;50.140;8.518;2022-10-16T00:00:21;2.05;;;1.27;;
22904;SDS011;11619;50.140;8.518;2022-10-16T00:02:48;1.45;;;1.35;;
22904;SDS011;11619;50.140;8.518;2022-10-16T00:05:14;2.17;;;1.30;;
22904;SDS011;11619;50.140;8.518;2022-10-16T00:07:40;1.30;;;1.20;;
22904;SDS011;11619;50.140;8.518;2022-10-16T00:10:07;4.22;;;1.50;;
22904;SDS011;11619;50.140;8.518;2022-10-16T00:12:33;2.92;;;1.52;;
22904;SDS011;11619;50.140;8.518;2022-10-16T00:15:00;5.72;;;1.92;;
22904;SDS011;11619;50.140;8.518;2022-10-16T00:17:26;1.70;;;1.60;;
22904;SDS011;11619;50.140;8.518;2022-10-16T00:20:00;1.90;;;1.80;;
22904;SDS011;11619;50.140;8.518;2022-10-16T00:22:28;3.00;;;1.50;;
22904;SDS011;11619;50.140;8.518;2022-10-16T00:24:55;1.88;;;1.55;;
22904;SDS011;11619;50.140;8.518;2022-10-16T00:27:31;1.40;;;1.30;;
22904;SDS011;11619;50.140;8.518;2022-10-16T00:29:57;1.42;;;1.30;;
22904;SDS011;11619;50.140;8.518;2022-10-16T00:32:23;1.75;;;1.65;;
22904;SDS011;11619;50.140;8.518;2022-10-16T00:34:53;1.33;;;1.23;;
22904;SDS011;11619;50.140;8.518;2022-10-16T00:37:23;2.15;;;1.38;;
22904;SDS011;11619;50.140;8.518;2022-10-16T00:39:54;5.75;;;1.90;;
22904;SDS011;11619;50.140;8.518;2022-10-16T00:42:26;2.60;;;1.33;;
22904;SDS011;11619;50.140;8.518;2022-10-16T00:44:57;2.25;;;1.80;;
22904;SDS011;11619;50.140;8.518;2022-10-16T00:50:00;3.40;;;2.10;;
22904;SDS011;11619;50.140;8.518;2022-10-16T00:52:50;2.58;;;1.92;;
22904;SDS011;11619;50.140;8.518;2022-10-16T00:55:17;3.17;;;1.90;;
22904;SDS011;11619;50.140;8.518;2022-10-16T00:57:44;1.80;;;1.70;;
22904;SDS011;11619;50.140;8.518;2022-10-16T01:00:13;2.63;;;2.40;;
22904;SDS011;11619;50.140;8.518;2022-10-16T01:02:41;6.82;;;2.65;;
22904;SDS011;11619;50.140;8.518;2022-10-16T01:05:08;4.65;;;3.08;;
22904;SDS011;11619;50.140;8.518;2022-10-16T01:10:30;4.00;;;3.25;;
22904;SDS011;11619;50.140;8.518;2022-10-16T01:13:04;3.60;;;3.30;;
22904;SDS011;11619;50.140;8.518;2022-10-16T01:15:54;4.32;;;3.92;;
22904;SDS011;11619;50.140;8.518;2022-10-16T01:21:35;4.97;;;4.57;;
22904;SDS011;11619;50.140;8.518;2022-10-16T01:24:24;5.40;;;4.90;;
22904;SDS011;11619;50.140;8.518;2022-10-16T01:27:46;8.63;;;5.82;;
22904;SDS011;11619;50.140;8.518;2022-10-16T01:30:36;6.68;;;5.97;;
22904;SDS011;11619;50.140;8.518;2022-10-16T01:33:24;7.18;;;5.78;;
22904;SDS011;11619;50.140;8.518;2022-10-16T01:36:16;6.40;;;5.85;;
22904;SDS011;11619;50.140;8.518;2022-10-16T01:38:59;7.20;;;5.40;;
22904;SDS011;11619;50.140;8.518;2022-10-16T01:41:30;8.20;;;7.40;;
22904;SDS011;11619;50.140;8.518;2022-10-16T01:44:01;8.75;;;7.85;;
22904;SDS011;11619;50.140;8.518;2022-10-16T01:46:31;10.45;;;9.05;;
22904;SDS011;11619;50.140;8.518;2022-10-16T01:48:59;10.93;;;9.75;;
22904;SDS011;11619;50.140;8.518;2022-10-16T01:51:26;12.27;;;10.02;;
22904;SDS011;11619;50.140;8.518;2022-10-16T01:53:54;10.63;;;9.52;;
22904;SDS011;11619;50.140;8.518;2022-10-16T01:56:22;10.85;;;9.80;;
22904;SDS011;11619;50.140;8.518;2022-10-16T01:58:59;11.45;;;10.20;;
22904;SDS011;11619;50.140;8.518;2022-10-16T02:01:29;10.57;;;9.68;;
22904;SDS011;11619;50.140;8.518;2022-10-16T02:03:58;12.98;;;11.18;;
22904;SDS011;11619;50.140;8.518;2022-10-16T02:06:29;11.98;;;10.77;;
22904;SDS011;11619;50.140;8.518;2022-10-16T02:08:56;14.38;;;11.82;;
22904;SDS011;11619;50.140;8.518;2022-10-16T02:11:22;15.68;;;12.15;;
22904;SDS011;11619;50.140;8.518;2022-10-16T02:13:51;14.95;;;12.20;;
22904;SDS011;11619;50.140;8.518;2022-10-16T02:16:19;13.75;;;12.30;;
22904;SDS011;11619;50.140;8.518;2022-10-16T02:18:46;16.00;;;12.43;;
22904;SDS011;11619;50.140;8.518;2022-10-16T02:21:19;12.20;;;11.10;;
22904;SDS011;11619;50.140;8.518;2022-10-16T02:26:28;13.68;;;12.48;;
22904;SDS011;11619;50.140;8.518;2022-10-16T02:29:04;12.18;;;10.90;;
22904;SDS011;11619;50.140;8.518;2022-10-16T02:31:35;11.43;;;10.20;;
22904;SDS011;11619;50.140;8.518;2022-10-16T02:34:02;11.43;;;10.38;;
22904;SDS011;11619;50.140;8.518;2022-10-16T02:36:31;10.45;;;9.52;;
22904;SDS011;11619;50.140;8.518;2022-10-16T02:38:58;14.93;;;10.18;;
22904;SDS011;11619;50.140;8.518;2022-10-16T02:41:27;10.43;;;9.32;;
22904;SDS011;11619;50.140;8.518;2022-10-16T02:43:53;10.70;;;9.60;;
22904;SDS011;11619;50.140;8.518;2022-10-16T02:46:21;8.88;;;8.00;;
22904;SDS011;11619;50.140;8.518;2022-10-16T02:48:47;9.10;;;7.88;;
22904;SDS011;11619;50.140;8.518;2022-10-16T02:51:13;12.02;;;8.40;;
22904;SDS011;11619;50.140;8.518;2022-10-16T02:53:40;9.43;;;8.15;;
22904;SDS011;11619;50.140;8.518;2022-10-16T02:56:06;8.77;;;7.10;;
22904;SDS011;11619;50.140;8.518;2022-10-16T02:58:33;7.88;;;7.18;;
22904;SDS011;11619;50.140;8.518;2022-10-16T03:00:59;8.13;;;7.43;;
22904;SDS011;11619;50.140;8.518;2022-10-16T03:03:26;7.65;;;6.93;;
22904;SDS011;11619;50.140;8.518;2022-10-16T03:05:52;7.95;;;7.18;;
22904;SDS011;11619;50.140;8.518;2022-10-16T03:08:18;7.57;;;6.35;;
22904;SDS011;11619;50.140;8.518;2022-10-16T03:10:49;7.18;;;6.47;;
22904;SDS011;11619;50.140;8.518;2022-10-16T03:13:16;7.13;;;6.53;;
22904;SDS011;11619;50.140;8.518;2022-10-16T03:15:43;6.90;;;6.07;;
22904;SDS011;11619;50.140;8.518;2022-10-16T03:18:09;7.90;;;5.82;;
22904;SDS011;11619;50.140;8.518;2022-10-16T03:20:36;7.40;;;5.70;;
22904;SDS011;11619;50.140;8.518;2022-10-16T03:23:02;6.43;;;5.80;;
22904;SDS011;11619;50.140;8.518;2022-10-16T03:25:29;6.80;;;5.70;;
22904;SDS011;11619;50.140;8.518;2022-10-16T03:27:55;6.75;;;6.03;;
22904;SDS011;11619;50.140;8.518;2022-10-16T03:30:21;7.55;;;5.68;;
22904;SDS011;11619;50.140;8.518;2022-10-16T03:32:48;6.05;;;5.40;;
22904;SDS011;11619;50.140;8.518;2022-10-16T03:35:14;6.25;;;5.53;;
22904;SDS011;11619;50.140;8.518;2022-10-16T03:37:40;7.65;;;5.78;;
22904;SDS011;11619;50.140;8.518;2022-10-16T03:40:07;5.90;;;5.40;;
22904;SDS011;11619;50.140;8.518;2022-10-16T03:42:34;6.88;;;5.57;;
22904;SDS011;11619;50.140;8.518;2022-10-16T03:45:00;7.07;;;5.68;;
22904;SDS011;11619;50.140;8.518;2022-10-16T03:47:27;5.75;;;5.25;;
22904;SDS011;11619;50.140;8.518;2022-10-16T03:49:54;6.05;;;5.53;;
22904;SDS011;11619;50.140;8.518;2022-10-16T03:52:20;5.72;;;5.00;;
22904;SDS011;11619;50.140;8.518;2022-10-16T03:54:47;6.15;;;5.45;;
22904;SDS011;11619;50.140;8.518;2022-10-16T03:57:13;6.68;;;6.05;;
22904;SDS011;11619;50.140;8.518;2022-10-16T03:59:39;5.97;;;5.47;;
22904;SDS011;11619;50.140;8.518;2022-10-16T04:02:06;5.97;;;5.47;;
22904;SDS011;11619;50.140;8.518;2022-10-16T04:04:32;5.55;;;5.05;;
22904;SDS011;11619;50.140;8.518;2022-10-16T04:06:59;5.72;;;5.15;;
22904;SDS011;11619;50.140;8.518;2022-10-16T04:09:26;5.57;;;5.07;;
22904;SDS011;11619;50.140;8.518;2022-10-16T04:11:52;5.90;;;5.38;;
22904;SDS011;11619;50.140;8.518;2022-10-16T04:14:19;5.65;;;5.15;;
22904;SDS011;11619;50.140;8.518;2022-10-16T04:16:45;8.23;;;5.20;;
22904;SDS011;11619;50.140;8.518;2022-10-16T04:19:12;6.70;;;5.20;;
22904;SDS011;11619;50.140;8.518;2022-10-16T04:21:39;7.85;;;5.57;;
22904;SDS011;11619;50.140;8.518;2022-10-16T04:24:05;5.35;;;4.90;;
22904;SDS011;11619;50.140;8.518;2022-10-16T04:26:32;7.03;;;5.00;;
22904;SDS011;11619;50.140;8.518;2022-10-16T04:28:58;5.63;;;5.13;;
22904;SDS011;11619;50.140;8.518;2022-10-16T04:31:25;5.78;;;5.28;;
22904;SDS011;11619;50.140;8.518;2022-10-16T04:33:51;5.45;;;4.95;;
22904;SDS011;11619;50.140;8.518;2022-10-16T04:36:17;4.38;;;4.07;;
22904;SDS011;11619;50.140;8.518;2022-10-16T04:38:44;5.13;;;4.70;;
22904;SDS011;11619;50.140;8.518;2022-10-16T04:41:10;5.47;;;4.95;;
22904;SDS011;11619;50.140;8.518;2022-10-16T04:43:36;4.53;;;4.07;;
22904;SDS011;11619;50.140;8.518;2022-10-16T04:46:03;5.10;;;4.70;;
22904;SDS011;11619;50.140;8.518;2022-10-16T04:48:30;5.30;;;4.65;;
22904;SDS011;11619;50.140;8.518;2022-10-16T04:50:57;5.47;;;4.85;;
22904;SDS011;11619;50.140;8.518;2022-10-16T04:53:25;6.05;;;5.45;;
22904;SDS011;11619;50.140;8.518;2022-10-16T04:55:51;4.97;;;4.57;;
22904;SDS011;11619;50.140;8.518;2022-10-16T04:58:17;5.18;;;4.78;;
22904;SDS011;11619;50.140;8.518;2022-10-16T05:00:44;5.05;;;4.60;;
22904;SDS011;11619;50.140;8.518;2022-10-16T05:03:10;5.22;;;4.57;;
22904;SDS011;11619;50.140;8.518;2022-10-16T05:05:41;5.32;;;4.75;;
22904;SDS011;11619;50.140;8.518;2022-10-16T05:08:09;4.63;;;4.22;;
22904;SDS011;11619;50.140;8.518;2022-10-16T05:10:35;4.60;;;4.20;;
22904;SDS011;11619;50.140;8.518;2022-10-16T05:13:02;5.38;;;4.43;;
22904;SDS011;11619;50.140;8.518;2022-10-16T05:15:28;6.03;;;4.25;;
22904;SDS011;11619;50.140;8.518;2022-10-16T05:17:55;5.97;;;4.22;;
22904;SDS011;11619;50.140;8.518;2022-10-16T05:20:22;4.57;;;4.18;;
22904;SDS011;11619;50.140;8.518;2022-10-16T05:22:48;4.60;;;4.20;;
22904;SDS011;11619;50.140;8.518;2022-10-16T05:25:15;4.40;;;3.95;;
22904;SDS011;11619;50.140;8.518;2022-10-16T05:27:41;4.82;;;4.30;;
22904;SDS011;11619;50.140;8.518;2022-10-16T05:30:08;4.60;;;4.20;;
22904;SDS011;11619;50.140;8.518;2022-10-16T05:32:37;4.57;;;3.75;;
22904;SDS011;11619;50.140;8.518;2022-10-16T05:35:04;5.32;;;3.92;;
22904;SDS011;11619;50.140;8.518;2022-10-16T05:37:35;4.40;;;4.00;;
22904;SDS011;11619;50.140;8.518;2022-10-16T05:40:01;4.72;;;3.70;;
22904;SDS011;11619;50.140;8.518;2022-10-16T05:42:31;3.35;;;3.05;;
22904;SDS011;11619;50.140;8.518;2022-10-16T05:44:57;3.70;;;3.40;;
22904;SDS011;11619;50.140;8.518;2022-10-16T05:47:23;5.35;;;3.80;;
22904;SDS011;11619;50.140;8.518;2022-10-16T05:49:50;4.43;;;4.03;;
22904;SDS011;11619;50.140;8.518;2022-10-16T05:52:17;5.55;;;3.60;;
22904;SDS011;11619;50.140;8.518;2022-10-16T05:54:43;5.03;;;4.53;;
22904;SDS011;11619;50.140;8.518;2022-10-16T05:57:10;5.55;;;4.57;;
22904;SDS011;11619;50.140;8.518;2022-10-16T05:59:36;4.38;;;3.97;;
22904;SDS011;11619;50.140;8.518;2022-10-16T06:02:02;4.18;;;3.88;;
22904;SDS011;11619;50.140;8.518;2022-10-16T06:04:29;4.72;;;4.25;;
22904;SDS011;11619;50.140;8.518;2022-10-16T06:06:57;5.63;;;4.72;;
22904;SDS011;11619;50.140;8.518;2022-10-16T06:09:26;5.13;;;4.55;;
22904;SDS011;11619;50.140;8.518;2022-10-16T06:11:52;4.05;;;3.65;;
22904;SDS011;11619;50.140;8.518;2022-10-16T06:14:18;5.25;;;4.30;;
22904;SDS011;11619;50.140;8.518;2022-10-16T06:16:45;5.25;;;4.25;;
22904;SDS011;11619;50.140;8.518;2022-10-16T06:19:11;6.05;;;4.80;;
22904;SDS011;11619;50.140;8.518;2022-10-16T06:21:38;5.15;;;4.43;;
22904;SDS011;11619;50.140;8.518;2022-10-16T06:24:04;6.38;;;4.80;;
22904;SDS011;11619;50.140;8.518;2022-10-16T06:26:31;4.30;;;3.90;;
22904;SDS011;11619;50.140;8.518;2022-10-16T06:28:58;7.80;;;4.18;;
22904;SDS011;11619;50.140;8.518;2022-10-16T06:31:25;4.05;;;3.72;;
22904;SDS011;11619;50.140;8.518;2022-10-16T06:33:55;5.65;;;4.57;;
22904;SDS011;11619;50.140;8.518;2022-10-16T06:36:22;5.38;;;3.80;;
22904;SDS011;11619;50.140;8.518;2022-10-16T06:38:49;5.10;;;4.18;;
22904;SDS011;11619;50.140;8.518;2022-10-16T06:41:16;4.55;;;3.97;;
22904;SDS011;11619;50.140;8.518;2022-10-16T06:43:46;4.35;;;4.03;;
22904;SDS011;11619;50.140;8.518;2022-10-16T06:46:14;4.28;;;3.97;;
22904;SDS011;11619;50.140;8.518;2022-10-16T06:48:41;3.72;;;3.42;;
22904;SDS011;11619;50.140;8.518;2022-10-16T06:53:34;4.47;;;4.07;;
22904;SDS011;11619;50.140;8.518;2022-10-16T06:56:12;4.32;;;4.03;;
22904;SDS011;11619;50.140;8.518;2022-10-16T06:58:44;4.50;;;3.47;;
22904;SDS011;11619;50.140;8.518;2022-10-16T07:01:11;4.95;;;4.13;;
22904;SDS011;11619;50.140;8.518;2022-10-16T07:03:39;3.53;;;3.22;;
22904;SDS011;11619;50.140;8.518;2022-10-16T07:06:07;4.03;;;3.53;;
22904;SDS011;11619;50.140;8.518;2022-10-16T07:08:34;3.92;;;3.63;;
22904;SDS011;11619;50.140;8.518;2022-10-16T07:11:02;3.88;;;3.55;;
22904;SDS011;11619;50.140;8.518;2022-10-16T07:13:32;3.97;;;3.60;;
22904;SDS011;11619;50.140;8.518;2022-10-16T07:18:42;3.95;;;3.60;;
22904;SDS011;11619;50.140;8.518;2022-10-16T07:21:12;4.47;;;3.63;;
22904;SDS011;11619;50.140;8.518;2022-10-16T07:23:40;4.05;;;3.58;;
22904;SDS011;11619;50.140;8.518;2022-10-16T07:26:07;5.13;;;3.40;;
22904;SDS011;11619;50.140;8.518;2022-10-16T07:28:33;4.10;;;3.70;;
22904;SDS011;11619;50.140;8.518;2022-10-16T07:31:07;5.38;;;3.80;;
22904;SDS011;11619;50.140;8.518;2022-10-16T07:33:37;4.47;;;4.07;;
22904;SDS011;11619;50.140;8.518;2022-10-16T07:36:04;3.88;;;3.13;;
22904;SDS011;11619;50.140;8.518;2022-10-16T07:38:31;4.50;;;4.00;;
22904;SDS011;11619;50.140;8.518;2022-10-16T07:40:58;3.85;;;3.22;;
22904;SDS011;11619;50.140;8.518;2022-10-16T07:43:28;5.07;;;4.40;;
22904;SDS011;11619;50.140;8.518;2022-10-16T07:45:55;4.38;;;3.40;;
22904;SDS011;11619;50.140;8.518;2022-10-16T07:48:28;4.15;;;3.50;;
22904;SDS011;11619;50.140;8.518;2022-10-16T07:50:57;4.40;;;3.05;;
22904;SDS011;11619;50.140;8.518;2022-10-16T07:53:25;3.25;;;3.00;;
22904;SDS011;11619;50.140;8.518;2022-10-16T07:55:52;4.57;;;3.88;;
22904;SDS011;11619;50.140;8.518;2022-10-16T07:58:18;3.50;;;3.20;;
22904;SDS011;11619;50.140;8.518;2022-10-16T08:00:45;3.85;;;3.30;;
22904;SDS011;11619;50.140;8.518;2022-10-16T08:03:11;3.72;;;3.08;;
22904;SDS011;11619;50.140;8.518;2022-10-16T08:05:37;3.60;;;3.30;;
22904;SDS011;11619;50.140;8.518;2022-10-16T08:08:04;3.05;;;2.83;;
22904;SDS011;11619;50.140;8.518;2022-10-16T08:10:30;3.42;;;2.85;;
22904;SDS011;11619;50.140;8.518;2022-10-16T08:12:57;4.47;;;3.28;;
22904;SDS011;11619;50.140;8.518;2022-10-16T08:15:24;3.83;;;3.40;;
22904;SDS011;11619;50.140;8.518;2022-10-16T08:17:54;4.25;;;3.42;;
22904;SDS011;11619;50.140;8.518;2022-10-16T08:20:22;4.50;;;3.55;;
22904;SDS011;11619;50.140;8.518;2022-10-16T08:22:48;4.22;;;3.80;;
22904;SDS011;11619;50.140;8.518;2022-10-16T08:25:15;8.32;;;4.00;;
22904;SDS011;11619;50.140;8.518;2022-10-16T08:27:41;4.05;;;3.65;;
22904;SDS011;11619;50.140;8.518;2022-10-16T08:30:07;4.40;;;3.97;;
22904;SDS011;11619;50.140;8.518;2022-10-16T08:32:34;4.45;;;3.50;;
22904;SDS011;11619;50.140;8.518;2022-10-16T08:35:01;5.75;;;3.42;;
22904;SDS011;11619;50.140;8.518;2022-10-16T08:37:30;3.33;;;3.03;;
22904;SDS011;11619;50.140;8.518;2022-10-16T08:39:58;4.43;;;3.63;;
22904;SDS011;11619;50.140;8.518;2022-10-16T08:50:30;3.35;;;2.90;;
22904;SDS011;11619;50.140;8.518;2022-10-16T08:52:57;4.22;;;3.83;;
22904;SDS011;11619;50.140;8.518;2022-10-16T08:58:16;6.25;;;4.45;;
22904;SDS011;11619;50.140;8.518;2022-10-16T09:00:48;4.70;;;4.22;;
22904;SDS011;11619;50.140;8.518;2022-10-16T09:03:22;4.93;;;3.78;;
22904;SDS011;11619;50.140;8.518;2022-10-16T09:08:57;3.60;;;3.22;;
22904;SDS011;11619;50.140;8.518;2022-10-16T09:11:46;4.25;;;3.75;;
22904;SDS011;11619;50.140;8.518;2022-10-16T09:20:06;10.02;;;3.90;;
22904;SDS011;11619;50.140;8.518;2022-10-16T09:22:40;5.95;;;4.13;;
22904;SDS011;11619;50.140;8.518;2022-10-16T09:25:14;3.35;;;2.92;;
22904;SDS011;11619;50.140;8.518;2022-10-16T09:27:45;6.75;;;3.20;;
22904;SDS011;11619;50.140;8.518;2022-10-16T09:30:18;3.00;;;2.67;;
22904;SDS011;11619;50.140;8.518;2022-10-16T09:32:47;4.00;;;3.60;;
22904;SDS011;11619;50.140;8.518;2022-10-16T09:35:19;2.78;;;2.42;;
22904;SDS011;11619;50.140;8.518;2022-10-16T09:37:48;6.85;;;4.38;;
22904;SDS011;11619;50.140;8.518;2022-10-16T09:40:26;10.48;;;6.05;;
22904;SDS011;11619;50.140;8.518;2022-10-16T09:42:57;6.70;;;4.28;;
22904;SDS011;11619;50.140;8.518;2022-10-16T09:45:36;7.70;;;5.05;;
22904;SDS011;11619;50.140;8.518;2022-10-16T09:48:10;7.45;;;4.55;;
22904;SDS011;11619;50.140;8.518;2022-10-16T09:50:37;7.38;;;4.65;;
22904;SDS011;11619;50.140;8.518;2022-10-16T09:53:10;8.77;;;5.45;;
22904;SDS011;11619;50.140;8.518;2022-10-16T09:55:47;9.05;;;6.22;;
22904;SDS011;11619;50.140;8.518;2022-10-16T09:58:17;4.85;;;4.30;;
22904;SDS011;11619;50.140;8.518;2022-10-16T10:00:50;7.10;;;2.92;;
22904;SDS011;11619;50.140;8.518;2022-10-16T10:03:37;6.80;;;3.15;;
22904;SDS011;11619;50.140;8.518;2022-10-16T10:06:26;4.72;;;3.13;;
22904;SDS011;11619;50.140;8.518;2022-10-16T10:08:58;5.57;;;3.88;;
22904;SDS011;11619;50.140;8.518;2022-10-16T10:19:37;3.35;;;3.03;;
22904;SDS011;11619;50.140;8.518;2022-10-16T10:22:47;3.53;;;3.22;;
22904;SDS011;11619;50.140;8.518;2022-10-16T10:30:44;3.53;;;2.85;;
22904;SDS011;11619;50.140;8.518;2022-10-16T10:38:46;2.72;;;2.45;;
22904;SDS011;11619;50.140;8.518;2022-10-16T10:57:33;3.08;;;1.90;;
22904;SDS011;11619;50.140;8.518;2022-10-16T11:05:58;4.10;;;2.05;;
22904;SDS011;11619;50.140;8.518;2022-10-16T11:08:30;3.53;;;1.55;;
22904;SDS011;11619;50.140;8.518;2022-10-16T11:11:00;3.42;;;1.67;;
22904;SDS011;11619;50.140;8.518;2022-10-16T11:16:28;4.40;;;1.90;;
22904;SDS011;11619;50.140;8.518;2022-10-16T11:19:01;2.95;;;1.42;;
22904;SDS011;11619;50.140;8.518;2022-10-16T11:21:30;3.38;;;1.83;;
22904;SDS011;11619;50.140;8.518;2022-10-16T11:24:01;2.15;;;1.42;;
22904;SDS011;11619;50.140;8.518;2022-10-16T11:26:35;1.20;;;1.10;;
22904;SDS011;11619;50.140;8.518;2022-10-16T11:29:07;4.22;;;1.45;;
22904;SDS011;11619;50.140;8.518;2022-10-16T11:39:49;2.05;;;1.80;;
22904;SDS011;11619;50.140;8.518;2022-10-16T11:47:51;3.85;;;1.70;;
22904;SDS011;11619;50.140;8.518;2022-10-16T11:53:59;2.20;;;1.90;;
22904;SDS011;11619;50.140;8.518;2022-10-16T11:55:54;3.20;;;1.60;;
22904;SDS011;11619;50.140;8.518;2022-10-16T12:01:02;3.42;;;2.00;;
22904;SDS011;11619;50.140;8.518;2022-10-16T12:03:40;2.10;;;1.90;;
22904;SDS011;11619;50.140;8.518;2022-10-16T12:09:03;2.10;;;1.90;;
22904;SDS011;11619;50.140;8.518;2022-10-16T12:11:36;2.58;;;2.03;;
22904;SDS011;11619;50.140;8.518;2022-10-16T12:14:46;2.40;;;2.20;;
22904;SDS011;11619;50.140;8.518;2022-10-16T12:16:54;2.90;;;2.13;;
22904;SDS011;11619;50.140;8.518;2022-10-16T12:19:23;3.92;;;2.17;;
22904;SDS011;11619;50.140;8.518;2022-10-16T12:21:51;3.50;;;2.47;;
22904;SDS011;11619;50.140;8.518;2022-10-16T12:24:29;4.00;;;2.03;;
22904;SDS011;11619;50.140;8.518;2022-10-16T12:27:05;2.40;;;2.20;;
22904;SDS011;11619;50.140;8.518;2022-10-16T12:29:43;2.42;;;2.10;;
22904;SDS011;11619;50.140;8.518;2022-10-16T12:35:21;2.22;;;1.90;;
22904;SDS011;11619;50.140;8.518;2022-10-16T12:37:48;2.70;;;2.42;;
22904;SDS011;11619;50.140;8.518;2022-10-16T12:40:27;2.20;;;2.00;;
22904;SDS011;11619;50.140;8.518;2022-10-16T12:42:55;2.63;;;1.98;;
22904;SDS011;11619;50.140;8.518;2022-10-16T12:45:28;2.28;;;1.67;;
22904;SDS011;11619;50.140;8.518;2022-10-16T12:47:57;2.20;;;1.70;;
22904;SDS011;11619;50.140;8.518;2022-10-16T12:50:35;1.90;;;1.80;;
22904;SDS011;11619;50.140;8.518;2022-10-16T12:53:03;5.30;;;1.95;;
22904;SDS011;11619;50.140;8.518;2022-10-16T12:55:46;2.10;;;2.00;;
22904;SDS011;11619;50.140;8.518;2022-10-16T12:58:33;2.95;;;1.80;;
22904;SDS011;11619;50.140;8.518;2022-10-16T13:01:49;2.70;;;2.08;;
22904;SDS011;11619;50.140;8.518;2022-10-16T13:12:35;2.28;;;1.35;;
22904;SDS011;11619;50.140;8.518;2022-10-16T13:15:19;2.15;;;1.60;;
22904;SDS011;11619;50.140;8.518;2022-10-16T13:23:48;1.70;;;1.60;;
22904;SDS011;11619;50.140;8.518;2022-10-16T13:27:07;2.08;;;1.80;;
22904;SDS011;11619;50.140;8.518;2022-10-16T13:29:13;2.08;;;1.65;;
22904;SDS011;11619;50.140;8.518;2022-10-16T13:31:40;1.50;;;1.40;;
22904;SDS011;11619;50.140;8.518;2022-10-16T13:34:10;2.85;;;1.42;;
22904;SDS011;11619;50.140;8.518;2022-10-16T13:36:49;1.60;;;1.50;;
22904;SDS011;11619;50.140;8.518;2022-10-16T13:44:54;1.58;;;1.35;;
22904;SDS011;11619;50.140;8.518;2022-10-16T13:47:25;2.03;;;1.52;;
22904;SDS011;11619;50.140;8.518;2022-10-16T13:50:04;1.70;;;1.42;;
22904;SDS011;11619;50.140;8.518;2022-10-16T13:52:40;2.88;;;1.30;;
22904;SDS011;11619;50.140;8.518;2022-10-16T13:55:14;1.42;;;1.33;;
22904;SDS011;11619;50.140;8.518;2022-10-16T13:57:42;1.67;;;1.40;;
22904;SDS011;11619;50.140;8.518;2022-10-16T14:00:22;2.25;;;1.50;;
22904;SDS011;11619;50.140;8.518;2022-10-16T14:02:57;2.05;;;1.40;;
22904;SDS011;11619;50.140;8.518;2022-10-16T14:05:27;4.10;;;1.50;;
22904;SDS011;11619;50.140;8.518;2022-10-16T14:07:53;2.78;;;1.63;;
22904;SDS011;11619;50.140;8.518;2022-10-16T14:10:30;1.48;;;1.30;;
22904;SDS011;11619;50.140;8.518;2022-10-16T14:12:58;1.40;;;1.30;;
22904;SDS011;11619;50.140;8.518;2022-10-16T14:15:25;5.10;;;1.75;;
22904;SDS011;11619;50.140;8.518;2022-10-16T14:17:55;2.97;;;1.35;;
22904;SDS011;11619;50.140;8.518;2022-10-16T14:20:24;3.08;;;1.70;;
22904;SDS011;11619;50.140;8.518;2022-10-16T14:23:02;1.92;;;1.30;;
22904;SDS011;11619;50.140;8.518;2022-10-16T14:25:49;2.10;;;1.30;;
22904;SDS011;11619;50.140;8.518;2022-10-16T14:28:17;2.05;;;1.48;;
22904;SDS011;11619;50.140;8.518;2022-10-16T14:30:52;1.30;;;1.20;;
22904;SDS011;11619;50.140;8.518;2022-10-16T14:36:05;1.58;;;1.20;;
22904;SDS011;11619;50.140;8.518;2022-10-16T14:38:38;1.70;;;1.50;;
22904;SDS011;11619;50.140;8.518;2022-10-16T14:41:05;1.20;;;1.10;;
22904;SDS011;11619;50.140;8.518;2022-10-16T14:46:14;2.67;;;1.45;;
22904;SDS011;11619;50.140;8.518;2022-10-16T14:48:43;2.33;;;1.67;;
22904;SDS011;11619;50.140;8.518;2022-10-16T14:51:14;2.00;;;1.60;;
22904;SDS011;11619;50.140;8.518;2022-10-16T14:53:41;1.77;;;1.30;;
22904;SDS011;11619;50.140;8.518;2022-10-16T14:56:07;1.67;;;1.42;;
22904;SDS011;11619;50.140;8.518;2022-10-16T14:58:35;2.05;;;1.55;;
22904;SDS011;11619;50.140;8.518;2022-10-16T15:01:01;1.63;;;1.52;;
22904;SDS011;11619;50.140;8.518;2022-10-16T15:03:28;4.75;;;1.70;;
22904;SDS011;11619;50.140;8.518;2022-10-16T15:05:54;3.08;;;1.95;;
22904;SDS011;11619;50.140;8.518;2022-10-16T15:08:21;2.83;;;1.45;;
22904;SDS011;11619;50.140;8.518;2022-10-16T15:10:47;2.67;;;1.52;;
22904;SDS011;11619;50.140;8.518;2022-10-16T15:13:14;2.53;;;1.50;;
22904;SDS011;11619;50.140;8.518;2022-10-16T15:15:44;1.90;;;1.65;;
22904;SDS011;11619;50.140;8.518;2022-10-16T15:18:11;2.65;;;1.65;;
22904;SDS011;11619;50.140;8.518;2022-10-16T15:20:38;4.20;;;1.83;;
22904;SDS011;11619;50.140;8.518;2022-10-16T15:23:06;1.88;;;1.67;;
22904;SDS011;11619;50.140;8.518;2022-10-16T15:25:38;2.42;;;1.80;;
22904;SDS011;11619;50.140;8.518;2022-10-16T15:28:08;1.77;;;1.67;;
22904;SDS011;11619;50.140;8.518;2022-10-16T15:30:35;1.40;;;1.30;;
22904;SDS011;11619;50.140;8.518;2022-10-16T15:33:02;5.05;;;1.80;;
22904;SDS011;11619;50.140;8.518;2022-10-16T15:35:29;1.52;;;1.42;;
22904;SDS011;11619;50.140;8.518;2022-10-16T15:37:56;4.57;;;1.38;;
22904;SDS011;11619;50.140;8.518;2022-10-16T15:40:22;1.60;;;1.30;;
22904;SDS011;11619;50.140;8.518;2022-10-16T15:42:49;4.45;;;1.35;;
22904;SDS011;11619;50.140;8.518;2022-10-16T15:45:16;3.25;;;1.80;;
22904;SDS011;11619;50.140;8.518;2022-10-16T15:47:43;1.50;;;1.20;;
22904;SDS011;11619;50.140;8.518;2022-10-16T15:50:11;1.42;;;1.33;;
22904;SDS011;11619;50.140;8.518;2022-10-16T15:52:38;4.88;;;1.65;;
22904;SDS011;11619;50.140;8.518;2022-10-16T15:55:08;1.90;;;1.70;;
22904;SDS011;11619;50.140;8.518;2022-10-16T15:57:36;1.80;;;1.67;;
22904;SDS011;11619;50.140;8.518;2022-10-16T16:00:09;2.45;;;1.40;;
22904;SDS011;11619;50.140;8.518;2022-10-16T16:02:38;1.95;;;1.60;;
22904;SDS011;11619;50.140;8.518;2022-10-16T16:05:04;3.92;;;1.80;;
22904;SDS011;11619;50.140;8.518;2022-10-16T16:07:33;4.07;;;1.98;;
22904;SDS011;11619;50.140;8.518;2022-10-16T16:10:00;9.00;;;2.30;;
22904;SDS011;11619;50.140;8.518;2022-10-16T16:12:26;2.72;;;1.60;;
22904;SDS011;11619;50.140;8.518;2022-10-16T16:14:54;2.90;;;1.30;;
22904;SDS011;11619;50.140;8.518;2022-10-16T16:17:20;3.97;;;2.03;;
22904;SDS011;11619;50.140;8.518;2022-10-16T16:19:46;4.72;;;1.88;;
22904;SDS011;11619;50.140;8.518;2022-10-16T16:22:13;4.50;;;1.98;;
22904;SDS011;11619;50.140;8.518;2022-10-16T16:24:39;2.42;;;1.98;;
22904;SDS011;11619;50.140;8.518;2022-10-16T16:27:05;5.40;;;2.55;;
22904;SDS011;11619;50.140;8.518;2022-10-16T16:29:32;3.67;;;2.10;;
22904;SDS011;11619;50.140;8.518;2022-10-16T16:31:59;2.28;;;2.05;;
22904;SDS011;11619;50.140;8.518;2022-10-16T16:34:26;3.92;;;2.33;;
22904;SDS011;11619;50.140;8.518;2022-10-16T16:36:53;3.08;;;2.05;;
22904;SDS011;11619;50.140;8.518;2022-10-16T16:39:21;6.57;;;2.65;;
22904;SDS011;11619;50.140;8.518;2022-10-16T16:41:47;5.60;;;2.65;;
22904;SDS011;11619;50.140;8.518;2022-10-16T16:44:14;4.90;;;2.20;;
22904;SDS011;11619;50.140;8.518;2022-10-16T16:46:44;4.63;;;2.40;;
22904;SDS011;11619;50.140;8.518;2022-10-16T16:49:11;6.13;;;2.25;;
22904;SDS011;11619;50.140;8.518;2022-10-16T16:51:38;2.88;;;2.08;;
22904;SDS011;11619;50.140;8.518;2022-10-16T16:54:06;5.50;;;2.10;;
22904;SDS011;11619;50.140;8.518;2022-10-16T16:56:33;3.50;;;1.88;;
22904;SDS011;11619;50.140;8.518;2022-10-16T16:59:00;6.68;;;2.28;;
22904;SDS011;11619;50.140;8.518;2022-10-16T17:01:27;1.98;;;1.77;;
22904;SDS011;11619;50.140;8.518;2022-10-16T17:03:54;3.85;;;2.15;;
22904;SDS011;11619;50.140;8.518;2022-10-16T17:06:27;2.53;;;2.05;;
22904;SDS011;11619;50.140;8.518;2022-10-16T17:08:55;3.20;;;1.92;;
22904;SDS011;11619;50.140;8.518;2022-10-16T17:11:22;2.47;;;1.83;;